sensor_id;sensor_type;location;lat;lon;timestamp;P1;P2;P0
77974;PMS5003;67164;51.202;0.278;2024-01-15T00:01:52;5;5;
77974;PMS5003;67164;51.202;0.278;2024-01-15T00:04:18;6;6;
77974;PMS5003;67164;51.202;0.278;2024-01-15T00:06:43;7;7;
77974;PMS5003;67164;51.202;0.278;2024-01-15T00:09:09;7;7;
77974;PMS5003;67164;51.202;0.278;2024-01-15T00:11:35;6;6;
77974;PMS5003;67164;51.202;0.278;2024-01-15T00:14:01;7;6;
77974;PMS5003;67164;51.202;0.278;2024-01-15T00:16:27;7;7;
77974;PMS5003;67164;51.202;0.278;2024-01-15T00:18:53;7;7;
77974;PMS5003;67164;51.202;0.278;2024-01-15T00:21:18;7;7;
77974;PMS5003;67164;51.202;0.278;2024-01-15T00:23:44;7;7;
77974;PMS5003;67164;51.202;0.278;2024-01-15T00:26:10;8;8;
77974;PMS5003;67164;51.202;0.278;2024-01-15T00:28:36;6;6;
77974;PMS5003;67164;51.202;0.278;2024-01-15T00:31:02;7;6;
77974;PMS5003;67164;51.202;0.278;2024-01-15T00:33:28;6;6;
77974;PMS5003;67164;51.202;0.278;2024-01-15T00:35:53;6;6;
77974;PMS5003;67164;51.202;0.278;2024-01-15T00:38:19;5;5;
77974;PMS5003;67164;51.202;0.278;2024-01-15T00:40:45;8;7;
77974;PMS5003;67164;51.202;0.278;2024-01-15T00:43:11;6;6;
77974;PMS5003;67164;51.202;0.278;2024-01-15T00:45:37;7;6;
77974;PMS5003;67164;51.202;0.278;2024-01-15T00:48:03;6;6;
77974;PMS5003;67164;51.202;0.278;2024-01-15T00:50:28;4;4;
77974;PMS5003;67164;51.202;0.278;2024-01-15T00:52:54;6;6;
77974;PMS5003;67164;51.202;0.278;2024-01-15T00:55:20;6;5;
77974;PMS5003;67164;51.202;0.278;2024-01-15T00:57:46;8;6;
77974;PMS5003;67164;51.202;0.278;2024-01-15T01:00:12;7;6;
77974;PMS5003;67164;51.202;0.278;2024-01-15T01:02:37;8;8;
77974;PMS5003;67164;51.202;0.278;2024-01-15T01:05:04;5;5;
77974;PMS5003;67164;51.202;0.278;2024-01-15T01:07:29;7;6;
77974;PMS5003;67164;51.202;0.278;2024-01-15T01:09:55;5;5;
77974;PMS5003;67164;51.202;0.278;2024-01-15T01:12:21;5;5;
77974;PMS5003;67164;51.202;0.278;2024-01-15T01:14:47;4;4;
77974;PMS5003;67164;51.202;0.278;2024-01-15T01:17:12;4;4;
77974;PMS5003;67164;51.202;0.278;2024-01-15T01:19:38;6;4;
77974;PMS5003;67164;51.202;0.278;2024-01-15T01:22:04;4;4;
77974;PMS5003;67164;51.202;0.278;2024-01-15T01:24:30;3;2;
77974;PMS5003;67164;51.202;0.278;2024-01-15T01:26:56;3;3;
77974;PMS5003;67164;51.202;0.278;2024-01-15T01:29:21;4;4;
77974;PMS5003;67164;51.202;0.278;2024-01-15T01:31:47;5;5;
77974;PMS5003;67164;51.202;0.278;2024-01-15T01:34:13;6;6;
77974;PMS5003;67164;51.202;0.278;2024-01-15T01:36:39;5;5;
77974;PMS5003;67164;51.202;0.278;2024-01-15T01:39:05;4;4;
77974;PMS5003;67164;51.202;0.278;2024-01-15T01:41:31;3;3;
77974;PMS5003;67164;51.202;0.278;2024-01-15T01:43:57;4;4;
77974;PMS5003;67164;51.202;0.278;2024-01-15T01:46:22;5;3;
77974;PMS5003;67164;51.202;0.278;2024-01-15T01:48:48;4;4;
77974;PMS5003;67164;51.202;0.278;2024-01-15T01:51:14;3;3;
77974;PMS5003;67164;51.202;0.278;2024-01-15T01:53:40;5;5;
77974;PMS5003;67164;51.202;0.278;2024-01-15T01:56:06;3;3;
77974;PMS5003;67164;51.202;0.278;2024-01-15T01:58:31;4;4;
77974;PMS5003;67164;51.202;0.278;2024-01-15T02:00:57;5;3;
77974;PMS5003;67164;51.202;0.278;2024-01-15T02:03:23;4;4;
77974;PMS5003;67164;51.202;0.278;2024-01-15T02:05:49;4;4;
77974;PMS5003;67164;51.202;0.278;2024-01-15T02:08:15;4;4;
77974;PMS5003;67164;51.202;0.278;2024-01-15T02:10:40;4;4;
77974;PMS5003;67164;51.202;0.278;2024-01-15T02:13:06;5;5;
77974;PMS5003;67164;51.202;0.278;2024-01-15T02:15:32;5;5;
77974;PMS5003;67164;51.202;0.278;2024-01-15T02:17:58;4;4;
77974;PMS5003;67164;51.202;0.278;2024-01-15T02:20:24;4;4;
77974;PMS5003;67164;51.202;0.278;2024-01-15T02:22:50;4;4;
77974;PMS5003;67164;51.202;0.278;2024-01-15T02:25:15;4;4;
77974;PMS5003;67164;51.202;0.278;2024-01-15T02:27:41;7;5;
77974;PMS5003;67164;51.202;0.278;2024-01-15T02:30:07;4;4;
77974;PMS5003;67164;51.202;0.278;2024-01-15T02:32:33;5;5;
77974;PMS5003;67164;51.202;0.278;2024-01-15T02:34:59;3;3;
77974;PMS5003;67164;51.202;0.278;2024-01-15T02:37:24;4;4;
77974;PMS5003;67164;51.202;0.278;2024-01-15T02:39:50;7;5;
77974;PMS5003;67164;51.202;0.278;2024-01-15T02:42:16;5;4;
77974;PMS5003;67164;51.202;0.278;2024-01-15T02:44:42;5;5;
77974;PMS5003;67164;51.202;0.278;2024-01-15T02:47:08;4;4;
77974;PMS5003;67164;51.202;0.278;2024-01-15T02:49:33;3;3;
77974;PMS5003;67164;51.202;0.278;2024-01-15T02:51:59;4;4;
77974;PMS5003;67164;51.202;0.278;2024-01-15T02:54:25;4;4;
77974;PMS5003;67164;51.202;0.278;2024-01-15T02:56:51;4;4;
77974;PMS5003;67164;51.202;0.278;2024-01-15T02:59:17;6;5;
77974;PMS5003;67164;51.202;0.278;2024-01-15T03:01:43;4;4;
77974;PMS5003;67164;51.202;0.278;2024-01-15T03:04:08;6;4;
77974;PMS5003;67164;51.202;0.278;2024-01-15T03:06:34;4;4;
77974;PMS5003;67164;51.202;0.278;2024-01-15T03:09:00;6;5;
77974;PMS5003;67164;51.202;0.278;2024-01-15T03:11:26;5;5;
77974;PMS5003;67164;51.202;0.278;2024-01-15T03:13:52;6;5;
77974;PMS5003;67164;51.202;0.278;2024-01-15T03:16:18;3;3;
77974;PMS5003;67164;51.202;0.278;2024-01-15T03:18:43;4;4;
77974;PMS5003;67164;51.202;0.278;2024-01-15T03:21:09;7;6;
77974;PMS5003;67164;51.202;0.278;2024-01-15T03:23:35;4;4;
77974;PMS5003;67164;51.202;0.278;2024-01-15T03:26:01;4;4;
77974;PMS5003;67164;51.202;0.278;2024-01-15T03:28:27;4;4;
77974;PMS5003;67164;51.202;0.278;2024-01-15T03:30:52;4;4;
77974;PMS5003;67164;51.202;0.278;2024-01-15T03:33:18;4;4;
77974;PMS5003;67164;51.202;0.278;2024-01-15T03:35:44;5;5;
77974;PMS5003;67164;51.202;0.278;2024-01-15T03:38:10;5;5;
77974;PMS5003;67164;51.202;0.278;2024-01-15T03:40:36;4;4;
77974;PMS5003;67164;51.202;0.278;2024-01-15T03:43:02;3;3;
77974;PMS5003;67164;51.202;0.278;2024-01-15T03:45:28;6;6;
77974;PMS5003;67164;51.202;0.278;2024-01-15T03:47:53;4;4;
77974;PMS5003;67164;51.202;0.278;2024-01-15T03:50:19;4;4;
77974;PMS5003;67164;51.202;0.278;2024-01-15T03:52:45;6;5;
77974;PMS5003;67164;51.202;0.278;2024-01-15T03:55:11;3;3;
77974;PMS5003;67164;51.202;0.278;2024-01-15T03:57:37;4;4;
77974;PMS5003;67164;51.202;0.278;2024-01-15T04:00:03;6;6;
77974;PMS5003;67164;51.202;0.278;2024-01-15T04:02:28;7;5;
77974;PMS5003;67164;51.202;0.278;2024-01-15T04:04:54;4;4;
77974;PMS5003;67164;51.202;0.278;2024-01-15T04:07:20;4;4;
77974;PMS5003;67164;51.202;0.278;2024-01-15T04:09:46;5;3;
77974;PMS5003;67164;51.202;0.278;2024-01-15T04:12:12;3;3;
77974;PMS5003;67164;51.202;0.278;2024-01-15T04:14:38;6;5;
77974;PMS5003;67164;51.202;0.278;2024-01-15T04:17:03;5;5;
77974;PMS5003;67164;51.202;0.278;2024-01-15T04:19:29;4;4;
77974;PMS5003;67164;51.202;0.278;2024-01-15T04:21:55;6;5;
77974;PMS5003;67164;51.202;0.278;2024-01-15T04:24:21;4;4;
77974;PMS5003;67164;51.202;0.278;2024-01-15T04:26:47;5;5;
77974;PMS5003;67164;51.202;0.278;2024-01-15T04:29:13;5;5;
77974;PMS5003;67164;51.202;0.278;2024-01-15T04:31:38;5;5;
77974;PMS5003;67164;51.202;0.278;2024-01-15T04:34:04;5;5;
77974;PMS5003;67164;51.202;0.278;2024-01-15T04:36:30;3;3;
77974;PMS5003;67164;51.202;0.278;2024-01-15T04:38:56;3;3;
77974;PMS5003;67164;51.202;0.278;2024-01-15T04:41:22;5;5;
77974;PMS5003;67164;51.202;0.278;2024-01-15T04:43:48;5;4;
77974;PMS5003;67164;51.202;0.278;2024-01-15T04:46:13;6;5;
77974;PMS5003;67164;51.202;0.278;2024-01-15T04:48:39;6;6;
77974;PMS5003;67164;51.202;0.278;2024-01-15T04:51:05;3;3;
77974;PMS5003;67164;51.202;0.278;2024-01-15T04:53:31;4;4;
77974;PMS5003;67164;51.202;0.278;2024-01-15T04:55:57;7;5;
77974;PMS5003;67164;51.202;0.278;2024-01-15T04:58:23;5;5;
77974;PMS5003;67164;51.202;0.278;2024-01-15T05:00:48;6;4;
77974;PMS5003;67164;51.202;0.278;2024-01-15T05:03:14;3;3;
77974;PMS5003;67164;51.202;0.278;2024-01-15T05:05:40;4;4;
77974;PMS5003;67164;51.202;0.278;2024-01-15T05:08:06;4;4;
77974;PMS5003;67164;51.202;0.278;2024-01-15T05:10:32;3;3;
77974;PMS5003;67164;51.202;0.278;2024-01-15T05:12:58;4;4;
77974;PMS5003;67164;51.202;0.278;2024-01-15T05:15:23;5;4;
77974;PMS5003;67164;51.202;0.278;2024-01-15T05:17:49;3;3;
77974;PMS5003;67164;51.202;0.278;2024-01-15T05:20:15;5;5;
77974;PMS5003;67164;51.202;0.278;2024-01-15T05:22:41;7;5;
77974;PMS5003;67164;51.202;0.278;2024-01-15T05:25:07;6;4;
77974;PMS5003;67164;51.202;0.278;2024-01-15T05:27:33;4;4;
77974;PMS5003;67164;51.202;0.278;2024-01-15T05:29:59;4;4;
77974;PMS5003;67164;51.202;0.278;2024-01-15T05:32:24;3;3;
77974;PMS5003;67164;51.202;0.278;2024-01-15T05:34:50;4;4;
77974;PMS5003;67164;51.202;0.278;2024-01-15T05:37:16;3;3;
77974;PMS5003;67164;51.202;0.278;2024-01-15T05:39:42;5;5;
77974;PMS5003;67164;51.202;0.278;2024-01-15T05:42:08;4;4;
77974;PMS5003;67164;51.202;0.278;2024-01-15T05:44:34;4;4;
77974;PMS5003;67164;51.202;0.278;2024-01-15T05:46:59;3;3;
77974;PMS5003;67164;51.202;0.278;2024-01-15T05:49:25;3;3;
77974;PMS5003;67164;51.202;0.278;2024-01-15T05:51:51;3;3;
77974;PMS5003;67164;51.202;0.278;2024-01-15T05:54:18;3;3;
77974;PMS5003;67164;51.202;0.278;2024-01-15T05:56:43;3;3;
77974;PMS5003;67164;51.202;0.278;2024-01-15T05:59:09;5;5;
77974;PMS5003;67164;51.202;0.278;2024-01-15T06:01:34;2;2;
77974;PMS5003;67164;51.202;0.278;2024-01-15T06:04:00;4;4;
77974;PMS5003;67164;51.202;0.278;2024-01-15T06:06:26;4;4;
77974;PMS5003;67164;51.202;0.278;2024-01-15T06:08:52;4;4;
77974;PMS5003;67164;51.202;0.278;2024-01-15T06:11:18;2;2;
77974;PMS5003;67164;51.202;0.278;2024-01-15T06:13:44;5;5;
77974;PMS5003;67164;51.202;0.278;2024-01-15T06:16:13;4;3;
77974;PMS5003;67164;51.202;0.278;2024-01-15T06:18:35;4;4;
77974;PMS5003;67164;51.202;0.278;2024-01-15T06:21:01;4;4;
77974;PMS5003;67164;51.202;0.278;2024-01-15T06:23:27;5;5;
77974;PMS5003;67164;51.202;0.278;2024-01-15T06:25:52;4;4;
77974;PMS5003;67164;51.202;0.278;2024-01-15T06:28:18;4;3;
77974;PMS5003;67164;51.202;0.278;2024-01-15T06:30:44;3;3;
77974;PMS5003;67164;51.202;0.278;2024-01-15T06:33:10;3;3;
77974;PMS5003;67164;51.202;0.278;2024-01-15T06:35:36;4;4;
77974;PMS5003;67164;51.202;0.278;2024-01-15T06:38:01;4;4;
77974;PMS5003;67164;51.202;0.278;2024-01-15T06:40:27;4;4;
77974;PMS5003;67164;51.202;0.278;2024-01-15T06:42:53;5;4;
77974;PMS5003;67164;51.202;0.278;2024-01-15T06:45:19;3;3;
77974;PMS5003;67164;51.202;0.278;2024-01-15T06:47:45;3;3;
77974;PMS5003;67164;51.202;0.278;2024-01-15T06:50:11;3;3;
77974;PMS5003;67164;51.202;0.278;2024-01-15T06:52:36;4;4;
77974;PMS5003;67164;51.202;0.278;2024-01-15T06:55:03;3;3;
77974;PMS5003;67164;51.202;0.278;2024-01-15T06:57:28;4;1;
77974;PMS5003;67164;51.202;0.278;2024-01-15T06:59:54;3;3;
77974;PMS5003;67164;51.202;0.278;2024-01-15T07:02:20;3;3;
77974;PMS5003;67164;51.202;0.278;2024-01-15T07:04:46;4;4;
77974;PMS5003;67164;51.202;0.278;2024-01-15T07:07:11;4;4;
77974;PMS5003;67164;51.202;0.278;2024-01-15T07:09:37;6;5;
77974;PMS5003;67164;51.202;0.278;2024-01-15T07:12:03;4;3;
77974;PMS5003;67164;51.202;0.278;2024-01-15T07:14:29;4;4;
77974;PMS5003;67164;51.202;0.278;2024-01-15T07:16:55;6;4;
77974;PMS5003;67164;51.202;0.278;2024-01-15T07:19:21;4;4;
77974;PMS5003;67164;51.202;0.278;2024-01-15T07:21:46;3;3;
77974;PMS5003;67164;51.202;0.278;2024-01-15T07:24:12;5;5;
77974;PMS5003;67164;51.202;0.278;2024-01-15T07:26:38;2;2;
77974;PMS5003;67164;51.202;0.278;2024-01-15T07:29:04;3;3;
77974;PMS5003;67164;51.202;0.278;2024-01-15T07:31:30;4;4;
77974;PMS5003;67164;51.202;0.278;2024-01-15T07:33:56;3;3;
77974;PMS5003;67164;51.202;0.278;2024-01-15T07:36:21;4;3;
77974;PMS5003;67164;51.202;0.278;2024-01-15T07:38:47;3;3;
77974;PMS5003;67164;51.202;0.278;2024-01-15T07:41:13;6;3;
77974;PMS5003;67164;51.202;0.278;2024-01-15T07:43:39;4;4;
77974;PMS5003;67164;51.202;0.278;2024-01-15T07:46:05;2;2;
77974;PMS5003;67164;51.202;0.278;2024-01-15T07:48:31;3;3;
77974;PMS5003;67164;51.202;0.278;2024-01-15T07:50:56;3;3;
77974;PMS5003;67164;51.202;0.278;2024-01-15T07:53:22;3;2;
77974;PMS5003;67164;51.202;0.278;2024-01-15T07:58:14;3;2;
77974;PMS5003;67164;51.202;0.278;2024-01-15T08:00:40;3;3;
77974;PMS5003;67164;51.202;0.278;2024-01-15T08:03:06;1;1;
77974;PMS5003;67164;51.202;0.278;2024-01-15T08:05:31;3;3;
77974;PMS5003;67164;51.202;0.278;2024-01-15T08:07:57;3;3;
77974;PMS5003;67164;51.202;0.278;2024-01-15T08:10:23;41;40;
77974;PMS5003;67164;51.202;0.278;2024-01-15T08:12:48;125;121;
77974;PMS5003;67164;51.202;0.278;2024-01-15T08:15:14;106;98;
77974;PMS5003;67164;51.202;0.278;2024-01-15T08:17:39;90;89;
77974;PMS5003;67164;51.202;0.278;2024-01-15T08:20:05;84;78;
77974;PMS5003;67164;51.202;0.278;2024-01-15T08:22:40;87;83;
77974;PMS5003;67164;51.202;0.278;2024-01-15T08:24:57;74;70;
77974;PMS5003;67164;51.202;0.278;2024-01-15T08:27:21;71;69;
77974;PMS5003;67164;51.202;0.278;2024-01-15T08:29:47;71;66;
77974;PMS5003;67164;51.202;0.278;2024-01-15T08:32:12;61;58;
77974;PMS5003;67164;51.202;0.278;2024-01-15T08:34:37;59;55;
77974;PMS5003;67164;51.202;0.278;2024-01-15T08:37:03;47;45;
77974;PMS5003;67164;51.202;0.278;2024-01-15T08:39:28;44;42;
77974;PMS5003;67164;51.202;0.278;2024-01-15T08:41:54;40;40;
77974;PMS5003;67164;51.202;0.278;2024-01-15T08:44:19;41;37;
77974;PMS5003;67164;51.202;0.278;2024-01-15T08:46:44;42;35;
77974;PMS5003;67164;51.202;0.278;2024-01-15T08:49:10;39;33;
77974;PMS5003;67164;51.202;0.278;2024-01-15T08:51:36;29;26;
77974;PMS5003;67164;51.202;0.278;2024-01-15T08:54:01;27;27;
77974;PMS5003;67164;51.202;0.278;2024-01-15T08:56:26;29;29;
77974;PMS5003;67164;51.202;0.278;2024-01-15T08:58:51;32;25;
77974;PMS5003;67164;51.202;0.278;2024-01-15T09:01:16;23;23;
77974;PMS5003;67164;51.202;0.278;2024-01-15T09:03:42;22;20;
77974;PMS5003;67164;51.202;0.278;2024-01-15T09:06:07;17;17;
77974;PMS5003;67164;51.202;0.278;2024-01-15T09:08:32;18;16;
77974;PMS5003;67164;51.202;0.278;2024-01-15T09:10:58;20;17;
77974;PMS5003;67164;51.202;0.278;2024-01-15T09:13:24;13;13;
77974;PMS5003;67164;51.202;0.278;2024-01-15T09:15:50;15;13;
77974;PMS5003;67164;51.202;0.278;2024-01-15T09:18:16;10;10;
77974;PMS5003;67164;51.202;0.278;2024-01-15T09:20:42;9;9;
77974;PMS5003;67164;51.202;0.278;2024-01-15T09:23:07;9;9;
77974;PMS5003;67164;51.202;0.278;2024-01-15T09:25:33;10;9;
77974;PMS5003;67164;51.202;0.278;2024-01-15T09:27:59;9;9;
77974;PMS5003;67164;51.202;0.278;2024-01-15T09:30:25;9;9;
77974;PMS5003;67164;51.202;0.278;2024-01-15T09:32:50;6;6;
77974;PMS5003;67164;51.202;0.278;2024-01-15T09:35:16;9;8;
77974;PMS5003;67164;51.202;0.278;2024-01-15T09:37:42;11;9;
77974;PMS5003;67164;51.202;0.278;2024-01-15T09:40:08;14;14;
77974;PMS5003;67164;51.202;0.278;2024-01-15T09:42:33;13;11;
77974;PMS5003;67164;51.202;0.278;2024-01-15T09:44:59;10;9;
77974;PMS5003;67164;51.202;0.278;2024-01-15T09:47:25;13;11;
77974;PMS5003;67164;51.202;0.278;2024-01-15T09:49:50;15;11;
77974;PMS5003;67164;51.202;0.278;2024-01-15T09:52:16;13;11;
77974;PMS5003;67164;51.202;0.278;2024-01-15T09:54:43;13;12;
77974;PMS5003;67164;51.202;0.278;2024-01-15T09:57:07;8;8;
77974;PMS5003;67164;51.202;0.278;2024-01-15T09:59:33;8;8;
77974;PMS5003;67164;51.202;0.278;2024-01-15T10:01:59;10;9;
77974;PMS5003;67164;51.202;0.278;2024-01-15T10:04:25;6;6;
77974;PMS5003;67164;51.202;0.278;2024-01-15T10:06:51;5;5;
77974;PMS5003;67164;51.202;0.278;2024-01-15T10:09:17;7;7;
77974;PMS5003;67164;51.202;0.278;2024-01-15T10:11:43;7;7;
77974;PMS5003;67164;51.202;0.278;2024-01-15T10:14:08;7;5;
77974;PMS5003;67164;51.202;0.278;2024-01-15T10:16:34;5;4;
77974;PMS5003;67164;51.202;0.278;2024-01-15T10:19:00;3;3;
77974;PMS5003;67164;51.202;0.278;2024-01-15T10:21:26;4;4;
77974;PMS5003;67164;51.202;0.278;2024-01-15T10:23:52;6;4;
77974;PMS5003;67164;51.202;0.278;2024-01-15T10:26:17;4;4;
77974;PMS5003;67164;51.202;0.278;2024-01-15T10:28:43;3;3;
77974;PMS5003;67164;51.202;0.278;2024-01-15T10:31:09;4;2;
77974;PMS5003;67164;51.202;0.278;2024-01-15T10:33:35;2;2;
77974;PMS5003;67164;51.202;0.278;2024-01-15T10:36:01;3;3;
77974;PMS5003;67164;51.202;0.278;2024-01-15T10:38:27;2;2;
77974;PMS5003;67164;51.202;0.278;2024-01-15T10:40:53;2;2;
77974;PMS5003;67164;51.202;0.278;2024-01-15T10:43:18;3;2;
77974;PMS5003;67164;51.202;0.278;2024-01-15T10:45:44;2;2;
77974;PMS5003;67164;51.202;0.278;2024-01-15T10:48:10;2;2;
77974;PMS5003;67164;51.202;0.278;2024-01-15T10:50:36;1;1;
77974;PMS5003;67164;51.202;0.278;2024-01-15T10:53:02;2;2;
77974;PMS5003;67164;51.202;0.278;2024-01-15T10:55:27;3;3;
77974;PMS5003;67164;51.202;0.278;2024-01-15T10:57:53;3;3;
77974;PMS5003;67164;51.202;0.278;2024-01-15T11:00:19;3;3;
77974;PMS5003;67164;51.202;0.278;2024-01-15T11:02:44;2;2;
77974;PMS5003;67164;51.202;0.278;2024-01-15T11:05:10;1;1;
77974;PMS5003;67164;51.202;0.278;2024-01-15T11:07:36;2;2;
77974;PMS5003;67164;51.202;0.278;2024-01-15T11:10:03;3;3;
77974;PMS5003;67164;51.202;0.278;2024-01-15T11:12:28;2;2;
77974;PMS5003;67164;51.202;0.278;2024-01-15T11:15:00;2;2;
77974;PMS5003;67164;51.202;0.278;2024-01-15T11:17:19;2;2;
77974;PMS5003;67164;51.202;0.278;2024-01-15T11:19:46;2;2;
77974;PMS5003;67164;51.202;0.278;2024-01-15T11:24:37;2;2;
77974;PMS5003;67164;51.202;0.278;2024-01-15T11:27:03;2;2;
77974;PMS5003;67164;51.202;0.278;2024-01-15T11:29:29;2;2;
77974;PMS5003;67164;51.202;0.278;2024-01-15T11:31:58;0;0;
77974;PMS5003;67164;51.202;0.278;2024-01-15T11:34:20;2;2;
77974;PMS5003;67164;51.202;0.278;2024-01-15T11:41:38;2;1;
77974;PMS5003;67164;51.202;0.278;2024-01-15T11:44:03;2;2;
77974;PMS5003;67164;51.202;0.278;2024-01-15T11:46:29;2;2;
77974;PMS5003;67164;51.202;0.278;2024-01-15T11:48:57;2;2;
77974;PMS5003;67164;51.202;0.278;2024-01-15T11:51:21;2;2;
77974;PMS5003;67164;51.202;0.278;2024-01-15T11:53:47;1;1;
77974;PMS5003;67164;51.202;0.278;2024-01-15T11:56:14;2;2;
77974;PMS5003;67164;51.202;0.278;2024-01-15T11:58:38;0;0;
77974;PMS5003;67164;51.202;0.278;2024-01-15T12:01:04;1;1;
77974;PMS5003;67164;51.202;0.278;2024-01-15T12:03:31;1;1;
77974;PMS5003;67164;51.202;0.278;2024-01-15T12:05:56;1;1;
77974;PMS5003;67164;51.202;0.278;2024-01-15T12:08:22;2;2;
77974;PMS5003;67164;51.202;0.278;2024-01-15T12:10:47;6;2;
77974;PMS5003;67164;51.202;0.278;2024-01-15T12:13:14;1;1;
77974;PMS5003;67164;51.202;0.278;2024-01-15T12:15:39;1;1;
77974;PMS5003;67164;51.202;0.278;2024-01-15T12:18:05;1;1;
77974;PMS5003;67164;51.202;0.278;2024-01-15T12:20:31;1;1;
77974;PMS5003;67164;51.202;0.278;2024-01-15T12:22:57;1;1;
77974;PMS5003;67164;51.202;0.278;2024-01-15T12:25:22;2;2;
77974;PMS5003;67164;51.202;0.278;2024-01-15T12:27:48;4;3;
77974;PMS5003;67164;51.202;0.278;2024-01-15T12:30:14;2;2;
77974;PMS5003;67164;51.202;0.278;2024-01-15T12:32:40;4;4;
77974;PMS5003;67164;51.202;0.278;2024-01-15T12:35:06;2;2;
77974;PMS5003;67164;51.202;0.278;2024-01-15T12:37:32;4;3;
77974;PMS5003;67164;51.202;0.278;2024-01-15T12:40:03;3;3;
77974;PMS5003;67164;51.202;0.278;2024-01-15T12:42:23;6;3;
77974;PMS5003;67164;51.202;0.278;2024-01-15T12:44:49;2;2;
77974;PMS5003;67164;51.202;0.278;2024-01-15T12:47:15;4;4;
77974;PMS5003;67164;51.202;0.278;2024-01-15T12:49:41;6;5;
77974;PMS5003;67164;51.202;0.278;2024-01-15T12:52:08;7;5;
77974;PMS5003;67164;51.202;0.278;2024-01-15T12:54:32;4;4;
77974;PMS5003;67164;51.202;0.278;2024-01-15T12:56:58;4;4;
77974;PMS5003;67164;51.202;0.278;2024-01-15T12:59:24;3;3;
77974;PMS5003;67164;51.202;0.278;2024-01-15T13:01:50;5;3;
77974;PMS5003;67164;51.202;0.278;2024-01-15T13:06:41;7;2;
77974;PMS5003;67164;51.202;0.278;2024-01-15T13:09:07;3;3;
77974;PMS5003;67164;51.202;0.278;2024-01-15T13:11:33;2;2;
77974;PMS5003;67164;51.202;0.278;2024-01-15T13:13:59;4;2;
77974;PMS5003;67164;51.202;0.278;2024-01-15T13:16:25;3;3;
77974;PMS5003;67164;51.202;0.278;2024-01-15T13:18:51;5;4;
77974;PMS5003;67164;51.202;0.278;2024-01-15T13:21:16;2;2;
77974;PMS5003;67164;51.202;0.278;2024-01-15T13:23:42;1;1;
77974;PMS5003;67164;51.202;0.278;2024-01-15T13:26:08;4;2;
77974;PMS5003;67164;51.202;0.278;2024-01-15T13:28:34;3;1;
77974;PMS5003;67164;51.202;0.278;2024-01-15T13:31:00;2;2;
77974;PMS5003;67164;51.202;0.278;2024-01-15T13:33:25;6;2;
77974;PMS5003;67164;51.202;0.278;2024-01-15T13:35:51;2;2;
77974;PMS5003;67164;51.202;0.278;2024-01-15T13:38:17;2;2;
77974;PMS5003;67164;51.202;0.278;2024-01-15T13:40:43;1;1;
77974;PMS5003;67164;51.202;0.278;2024-01-15T13:43:09;2;2;
77974;PMS5003;67164;51.202;0.278;2024-01-15T13:45:35;2;2;
77974;PMS5003;67164;51.202;0.278;2024-01-15T13:48:00;1;1;
77974;PMS5003;67164;51.202;0.278;2024-01-15T13:50:26;3;1;
77974;PMS5003;67164;51.202;0.278;2024-01-15T13:52:52;1;1;
77974;PMS5003;67164;51.202;0.278;2024-01-15T13:55:18;0;0;
77974;PMS5003;67164;51.202;0.278;2024-01-15T13:57:44;2;2;
77974;PMS5003;67164;51.202;0.278;2024-01-15T14:00:10;2;2;
77974;PMS5003;67164;51.202;0.278;2024-01-15T14:02:35;1;1;
77974;PMS5003;67164;51.202;0.278;2024-01-15T14:05:01;1;1;
77974;PMS5003;67164;51.202;0.278;2024-01-15T14:07:27;2;2;
77974;PMS5003;67164;51.202;0.278;2024-01-15T14:09:53;1;1;
77974;PMS5003;67164;51.202;0.278;2024-01-15T14:12:19;1;1;
77974;PMS5003;67164;51.202;0.278;2024-01-15T14:14:44;4;1;
77974;PMS5003;67164;51.202;0.278;2024-01-15T14:17:11;2;2;
77974;PMS5003;67164;51.202;0.278;2024-01-15T14:19:36;2;2;
77974;PMS5003;67164;51.202;0.278;2024-01-15T14:22:02;2;2;
77974;PMS5003;67164;51.202;0.278;2024-01-15T14:24:28;2;2;
77974;PMS5003;67164;51.202;0.278;2024-01-15T14:26:54;2;2;
77974;PMS5003;67164;51.202;0.278;2024-01-15T14:29:19;3;2;
77974;PMS5003;67164;51.202;0.278;2024-01-15T14:31:45;1;1;
77974;PMS5003;67164;51.202;0.278;2024-01-15T14:34:11;3;1;
77974;PMS5003;67164;51.202;0.278;2024-01-15T14:36:37;1;1;
77974;PMS5003;67164;51.202;0.278;2024-01-15T14:39:03;1;1;
77974;PMS5003;67164;51.202;0.278;2024-01-15T14:41:29;2;2;
77974;PMS5003;67164;51.202;0.278;2024-01-15T14:43:54;3;3;
77974;PMS5003;67164;51.202;0.278;2024-01-15T14:46:20;1;1;
77974;PMS5003;67164;51.202;0.278;2024-01-15T14:48:46;1;1;
77974;PMS5003;67164;51.202;0.278;2024-01-15T14:51:12;2;2;
77974;PMS5003;67164;51.202;0.278;2024-01-15T14:53:38;2;2;
77974;PMS5003;67164;51.202;0.278;2024-01-15T14:56:04;2;2;
77974;PMS5003;67164;51.202;0.278;2024-01-15T14:58:29;3;3;
77974;PMS5003;67164;51.202;0.278;2024-01-15T15:00:55;3;2;
77974;PMS5003;67164;51.202;0.278;2024-01-15T15:03:21;4;3;
77974;PMS5003;67164;51.202;0.278;2024-01-15T15:05:47;2;2;
77974;PMS5003;67164;51.202;0.278;2024-01-15T15:08:13;4;3;
77974;PMS5003;67164;51.202;0.278;2024-01-15T15:10:38;2;2;
77974;PMS5003;67164;51.202;0.278;2024-01-15T15:13:04;2;2;
77974;PMS5003;67164;51.202;0.278;2024-01-15T15:15:30;1;1;
77974;PMS5003;67164;51.202;0.278;2024-01-15T15:17:56;2;2;
77974;PMS5003;67164;51.202;0.278;2024-01-15T15:20:22;2;2;
77974;PMS5003;67164;51.202;0.278;2024-01-15T15:22:47;2;2;
77974;PMS5003;67164;51.202;0.278;2024-01-15T15:25:13;2;2;
77974;PMS5003;67164;51.202;0.278;2024-01-15T15:27:39;2;2;
77974;PMS5003;67164;51.202;0.278;2024-01-15T15:30:06;3;3;
77974;PMS5003;67164;51.202;0.278;2024-01-15T15:32:31;4;1;
77974;PMS5003;67164;51.202;0.278;2024-01-15T15:34:57;5;3;
77974;PMS5003;67164;51.202;0.278;2024-01-15T15:37:22;2;2;
77974;PMS5003;67164;51.202;0.278;2024-01-15T15:39:48;2;1;
77974;PMS5003;67164;51.202;0.278;2024-01-15T15:42:14;3;3;
77974;PMS5003;67164;51.202;0.278;2024-01-15T15:44:40;2;2;
77974;PMS5003;67164;51.202;0.278;2024-01-15T15:47:06;2;2;
77974;PMS5003;67164;51.202;0.278;2024-01-15T15:49:32;2;2;
77974;PMS5003;67164;51.202;0.278;2024-01-15T15:51:57;2;2;
77974;PMS5003;67164;51.202;0.278;2024-01-15T15:54:23;3;2;
77974;PMS5003;67164;51.202;0.278;2024-01-15T15:56:49;3;3;
77974;PMS5003;67164;51.202;0.278;2024-01-15T15:59:15;4;4;
77974;PMS5003;67164;51.202;0.278;2024-01-15T16:01:41;4;4;
77974;PMS5003;67164;51.202;0.278;2024-01-15T16:04:07;1;1;
77974;PMS5003;67164;51.202;0.278;2024-01-15T16:06:32;3;3;
77974;PMS5003;67164;51.202;0.278;2024-01-15T16:08:58;5;3;
77974;PMS5003;67164;51.202;0.278;2024-01-15T16:11:24;3;3;
77974;PMS5003;67164;51.202;0.278;2024-01-15T16:13:50;1;1;
77974;PMS5003;67164;51.202;0.278;2024-01-15T16:16:16;3;3;
77974;PMS5003;67164;51.202;0.278;2024-01-15T16:18:41;6;4;
77974;PMS5003;67164;51.202;0.278;2024-01-15T16:21:07;4;2;
77974;PMS5003;67164;51.202;0.278;2024-01-15T16:23:33;4;3;
77974;PMS5003;67164;51.202;0.278;2024-01-15T16:25:59;2;2;
77974;PMS5003;67164;51.202;0.278;2024-01-15T16:28:25;6;5;
77974;PMS5003;67164;51.202;0.278;2024-01-15T16:30:51;4;2;
77974;PMS5003;67164;51.202;0.278;2024-01-15T16:33:16;4;3;
77974;PMS5003;67164;51.202;0.278;2024-01-15T16:35:42;6;3;
77974;PMS5003;67164;51.202;0.278;2024-01-15T16:38:08;4;4;
77974;PMS5003;67164;51.202;0.278;2024-01-15T16:40:34;5;4;
77974;PMS5003;67164;51.202;0.278;2024-01-15T16:42:59;3;3;
77974;PMS5003;67164;51.202;0.278;2024-01-15T16:45:25;4;4;
77974;PMS5003;67164;51.202;0.278;2024-01-15T16:47:51;5;4;
77974;PMS5003;67164;51.202;0.278;2024-01-15T16:50:17;4;4;